sensor_id;sensor_type;location;lat;lon;timestamp;pressure;altitude;pressure_sealevel;temperature;humidity
28310;BME280;15571;50.974;13.936;2023-08-08T00:01:17;99891.09;;;14.59;100.00
28310;BME280;15571;50.974;13.936;2023-08-08T00:04:19;99890.28;;;14.57;100.00
28310;BME280;15571;50.974;13.936;2023-08-08T00:07:22;99886.91;;;14.52;100.00
28310;BME280;15571;50.974;13.936;2023-08-08T00:10:24;99899.41;;;14.43;100.00
28310;BME280;15571;50.974;13.936;2023-08-08T00:13:26;99895.03;;;14.42;100.00
28310;BME280;15571;50.974;13.936;2023-08-08T00:16:28;99886.41;;;14.37;100.00
28310;BME280;15571;50.974;13.936;2023-08-08T00:19:30;99893.59;;;14.30;100.00
28310;BME280;15571;50.974;13.936;2023-08-08T00:22:33;99889.19;;;14.31;100.00
28310;BME280;15571;50.974;13.936;2023-08-08T00:25:35;99889.06;;;14.36;100.00
28310;BME280;15571;50.974;13.936;2023-08-08T00:28:37;99887.31;;;14.36;100.00
28310;BME280;15571;50.974;13.936;2023-08-08T00:31:39;99877.75;;;14.32;100.00
28310;BME280;15571;50.974;13.936;2023-08-08T00:34:41;99871.00;;;14.23;100.00
28310;BME280;15571;50.974;13.936;2023-08-08T00:37:44;99865.25;;;14.40;100.00
28310;BME280;15571;50.974;13.936;2023-08-08T00:40:46;99871.78;;;14.27;100.00
28310;BME280;15571;50.974;13.936;2023-08-08T00:43:48;99870.22;;;14.20;100.00
28310;BME280;15571;50.974;13.936;2023-08-08T00:46:50;99882.53;;;14.18;100.00
28310;BME280;15571;50.974;13.936;2023-08-08T00:49:54;99879.06;;;14.15;100.00
28310;BME280;15571;50.974;13.936;2023-08-08T00:52:59;99880.03;;;14.13;100.00
28310;BME280;15571;50.974;13.936;2023-08-08T00:56:01;99877.50;;;14.08;100.00
28310;BME280;15571;50.974;13.936;2023-08-08T00:59:03;99879.25;;;14.09;100.00
28310;BME280;15571;50.974;13.936;2023-08-08T01:02:06;99878.41;;;14.07;100.00
28310;BME280;15571;50.974;13.936;2023-08-08T01:05:10;99881.94;;;14.06;100.00
28310;BME280;15571;50.974;13.936;2023-08-08T01:08:15;99880.22;;;14.05;100.00
28310;BME280;15571;50.974;13.936;2023-08-08T01:11:18;99875.84;;;14.04;100.00
28310;BME280;15571;50.974;13.936;2023-08-08T01:14:19;99871.47;;;14.05;100.00
28310;BME280;15571;50.974;13.936;2023-08-08T01:17:22;99870.59;;;14.04;100.00
28310;BME280;15571;50.974;13.936;2023-08-08T01:20:27;99862.81;;;13.99;100.00
28310;BME280;15571;50.974;13.936;2023-08-08T01:23:33;99865.50;;;13.98;100.00
28310;BME280;15571;50.974;13.936;2023-08-08T01:26:37;99862.03;;;13.96;100.00
28310;BME280;15571;50.974;13.936;2023-08-08T01:29:41;99862.22;;;13.88;100.00
28310;BME280;15571;50.974;13.936;2023-08-08T01:32:43;99862.31;;;13.83;100.00
28310;BME280;15571;50.974;13.936;2023-08-08T01:35:46;99852.81;;;13.79;100.00
28310;BME280;15571;50.974;13.936;2023-08-08T01:38:49;99854.41;;;13.85;100.00
28310;BME280;15571;50.974;13.936;2023-08-08T01:41:54;99863.16;;;13.85;100.00
28310;BME280;15571;50.974;13.936;2023-08-08T01:44:57;99863.09;;;13.87;100.00
28310;BME280;15571;50.974;13.936;2023-08-08T01:47:59;99855.19;;;13.89;100.00
28310;BME280;15571;50.974;13.936;2023-08-08T01:51:02;99849.69;;;13.98;100.00
28310;BME280;15571;50.974;13.936;2023-08-08T01:54:04;99858.50;;;13.97;100.00
28310;BME280;15571;50.974;13.936;2023-08-08T01:57:08;99853.00;;;14.06;100.00
28310;BME280;15571;50.974;13.936;2023-08-08T02:00:10;99854.00;;;14.00;100.00
28310;BME280;15571;50.974;13.936;2023-08-08T02:03:16;99853.66;;;14.14;100.00
28310;BME280;15571;50.974;13.936;2023-08-08T02:06:18;99853.81;;;14.08;100.00
28310;BME280;15571;50.974;13.936;2023-08-08T02:09:20;99853.66;;;14.14;100.00
28310;BME280;15571;50.974;13.936;2023-08-08T02:12:27;99853.16;;;14.00;100.00
28310;BME280;15571;50.974;13.936;2023-08-08T02:15:29;99847.31;;;13.89;100.00
28310;BME280;15571;50.974;13.936;2023-08-08T02:18:32;99840.50;;;13.80;100.00
28310;BME280;15571;50.974;13.936;2023-08-08T02:21:36;99847.53;;;13.79;100.00
28310;BME280;15571;50.974;13.936;2023-08-08T02:24:37;99844.03;;;13.79;100.00
28310;BME280;15571;50.974;13.936;2023-08-08T02:27:41;99852.81;;;13.78;100.00
28310;BME280;15571;50.974;13.936;2023-08-08T02:30:44;99852.75;;;13.81;100.00
28310;BME280;15571;50.974;13.936;2023-08-08T02:33:49;99848.34;;;13.81;100.00
28310;BME280;15571;50.974;13.936;2023-08-08T02:36:51;99843.41;;;13.67;100.00
28310;BME280;15571;50.974;13.936;2023-08-08T02:39:53;99839.66;;;13.78;100.00
28310;BME280;15571;50.974;13.936;2023-08-08T02:42:57;99834.38;;;13.79;100.00
28310;BME280;15571;50.974;13.936;2023-08-08T02:45:59;99842.63;;;13.64;100.00
28310;BME280;15571;50.974;13.936;2023-08-08T02:49:01;99853.16;;;13.64;100.00
28310;BME280;15571;50.974;13.936;2023-08-08T02:52:04;99847.91;;;13.64;100.00
28310;BME280;15571;50.974;13.936;2023-08-08T02:55:08;99844.47;;;13.60;100.00
28310;BME280;15571;50.974;13.936;2023-08-08T02:58:13;99856.94;;;13.52;100.00
28310;BME280;15571;50.974;13.936;2023-08-08T03:01:15;99852.84;;;13.40;100.00
28310;BME280;15571;50.974;13.936;2023-08-08T03:04:19;99856.28;;;13.44;100.00
28310;BME280;15571;50.974;13.936;2023-08-08T03:07:21;99861.63;;;13.39;100.00
28310;BME280;15571;50.974;13.936;2023-08-08T03:10:24;99865.13;;;13.38;100.00
28310;BME280;15571;50.974;13.936;2023-08-08T03:13:28;99862.47;;;13.39;100.00
28310;BME280;15571;50.974;13.936;2023-08-08T03:16:31;99863.38;;;13.40;100.00
28310;BME280;15571;50.974;13.936;2023-08-08T03:19:33;99859.84;;;13.39;100.00
28310;BME280;15571;50.974;13.936;2023-08-08T03:22:36;99860.75;;;13.37;100.00
28310;BME280;15571;50.974;13.936;2023-08-08T03:25:39;99855.63;;;13.32;100.00
28310;BME280;15571;50.974;13.936;2023-08-08T03:28:43;99851.41;;;13.23;100.00
28310;BME280;15571;50.974;13.936;2023-08-08T03:31:45;99850.56;;;13.23;100.00
28310;BME280;15571;50.974;13.936;2023-08-08T03:34:48;99858.50;;;13.21;100.00
28310;BME280;15571;50.974;13.936;2023-08-08T03:37:50;99848.66;;;13.30;100.00
28310;BME280;15571;50.974;13.936;2023-08-08T03:40:52;99852.94;;;13.34;100.00
28310;BME280;15571;50.974;13.936;2023-08-08T03:43:55;99855.75;;;13.26;100.00
28310;BME280;15571;50.974;13.936;2023-08-08T03:46:59;99851.50;;;13.20;100.00
28310;BME280;15571;50.974;13.936;2023-08-08T03:50:01;99855.03;;;13.19;100.00
28310;BME280;15571;50.974;13.936;2023-08-08T03:53:05;99853.94;;;13.28;100.00
28310;BME280;15571;50.974;13.936;2023-08-08T03:56:07;99851.28;;;13.30;100.00
28310;BME280;15571;50.974;13.936;2023-08-08T03:59:12;99847.09;;;13.22;100.00
28310;BME280;15571;50.974;13.936;2023-08-08T04:02:14;99855.81;;;13.23;100.00
28310;BME280;15571;50.974;13.936;2023-08-08T04:05:16;99858.69;;;13.12;100.00
28310;BME280;15571;50.974;13.936;2023-08-08T04:08:18;99853.94;;;13.28;100.00
28310;BME280;15571;50.974;13.936;2023-08-08T04:11:21;99859.31;;;13.23;100.00
28310;BME280;15571;50.974;13.936;2023-08-08T04:14:26;99853.28;;;13.18;100.00
28310;BME280;15571;50.974;13.936;2023-08-08T04:17:28;99851.28;;;13.30;100.00
28310;BME280;15571;50.974;13.936;2023-08-08T04:20:57;99852.16;;;13.30;100.00
28310;BME280;15571;50.974;13.936;2023-08-08T04:24:26;99848.47;;;13.37;100.00
28310;BME280;15571;50.974;13.936;2023-08-08T04:27:34;99853.75;;;13.39;100.00
28310;BME280;15571;50.974;13.936;2023-08-08T04:31:04;99852.63;;;13.49;100.00
28310;BME280;15571;50.974;13.936;2023-08-08T04:34:13;99848.00;;;13.59;100.00
28310;BME280;15571;50.974;13.936;2023-08-08T04:42:23;99835.28;;;13.77;100.00
28310;BME280;15571;50.974;13.936;2023-08-08T04:45:28;99843.06;;;13.81;100.00
28310;BME280;15571;50.974;13.936;2023-08-08T04:48:32;99838.69;;;13.82;100.00
28310;BME280;15571;50.974;13.936;2023-08-08T04:51:34;99844.75;;;13.85;100.00
28310;BME280;15571;50.974;13.936;2023-08-08T04:54:36;99855.25;;;13.85;100.00
28310;BME280;15571;50.974;13.936;2023-08-08T04:57:41;99862.94;;;13.95;100.00
28310;BME280;15571;50.974;13.936;2023-08-08T05:00:43;99856.28;;;14.14;100.00
28310;BME280;15571;50.974;13.936;2023-08-08T05:03:47;99864.06;;;14.19;100.00
28310;BME280;15571;50.974;13.936;2023-08-08T05:06:49;99870.34;;;14.13;100.00
28310;BME280;15571;50.974;13.936;2023-08-08T05:09:51;99870.25;;;13.82;100.00
28310;BME280;15571;50.974;13.936;2023-08-08T05:12:53;99877.28;;;13.81;100.00
28310;BME280;15571;50.974;13.936;2023-08-08T05:15:55;99874.22;;;14.00;100.00
28310;BME280;15571;50.974;13.936;2023-08-08T05:18:58;99869.84;;;13.99;100.00
28310;BME280;15571;50.974;13.936;2023-08-08T05:22:01;99866.50;;;13.92;100.00
28310;BME280;15571;50.974;13.936;2023-08-08T05:25:03;99865.59;;;13.93;100.00
28310;BME280;15571;50.974;13.936;2023-08-08T05:28:05;99854.00;;;14.00;100.00
28310;BME280;15571;50.974;13.936;2023-08-08T05:31:07;99853.31;;;13.94;100.00
28310;BME280;15571;50.974;13.936;2023-08-08T05:34:11;99862.56;;;14.09;100.00
28310;BME280;15571;50.974;13.936;2023-08-08T05:37:13;99862.09;;;14.27;100.00
28310;BME280;15571;50.974;13.936;2023-08-08T05:40:15;99859.63;;;14.54;100.00
28310;BME280;15571;50.974;13.936;2023-08-08T05:43:17;99853.00;;;14.72;100.00
28310;BME280;15571;50.974;13.936;2023-08-08T05:46:19;99841.56;;;15.03;100.00
28310;BME280;15571;50.974;13.936;2023-08-08T05:49:22;99848.19;;;15.17;100.00
28310;BME280;15571;50.974;13.936;2023-08-08T05:52:24;99857.69;;;15.22;100.00
28310;BME280;15571;50.974;13.936;2023-08-08T05:55:26;99863.16;;;15.45;100.00
28310;BME280;15571;50.974;13.936;2023-08-08T05:58:28;99859.50;;;15.49;100.00
28310;BME280;15571;50.974;13.936;2023-08-08T06:01:30;99867.31;;;15.52;100.00
28310;BME280;15571;50.974;13.936;2023-08-08T06:04:37;99866.50;;;15.50;100.00
28310;BME280;15571;50.974;13.936;2023-08-08T06:07:39;99864.47;;;15.58;100.00
28310;BME280;15571;50.974;13.936;2023-08-08T06:10:41;99860.84;;;15.62;100.00
28310;BME280;15571;50.974;13.936;2023-08-08T06:13:43;99866.13;;;15.62;100.00
28310;BME280;15571;50.974;13.936;2023-08-08T06:16:45;99866.13;;;15.62;100.00
28310;BME280;15571;50.974;13.936;2023-08-08T06:19:49;99862.72;;;15.59;100.00
28310;BME280;15571;50.974;13.936;2023-08-08T06:22:51;99857.50;;;15.57;100.00
28310;BME280;15571;50.974;13.936;2023-08-08T06:25:54;99868.53;;;15.70;100.00
28310;BME280;15571;50.974;13.936;2023-08-08T06:28:56;99859.84;;;15.66;100.00
28310;BME280;15571;50.974;13.936;2023-08-08T06:31:58;99871.09;;;15.71;100.00
28310;BME280;15571;50.974;13.936;2023-08-08T06:35:01;99866.44;;;15.80;100.00
28310;BME280;15571;50.974;13.936;2023-08-08T06:38:03;99871.09;;;15.71;100.00
28310;BME280;15571;50.974;13.936;2023-08-08T06:41:05;99870.25;;;15.71;100.00
28310;BME280;15571;50.974;13.936;2023-08-08T06:44:08;99869.50;;;15.67;100.00
28310;BME280;15571;50.974;13.936;2023-08-08T06:47:11;99869.38;;;15.70;100.00
28310;BME280;15571;50.974;13.936;2023-08-08T06:50:15;99875.22;;;15.80;100.00
28310;BME280;15571;50.974;13.936;2023-08-08T06:53:18;99879.63;;;15.80;100.00
28310;BME280;15571;50.974;13.936;2023-08-08T06:56:22;99876.00;;;15.84;100.00
28310;BME280;15571;50.974;13.936;2023-08-08T06:59:25;99869.06;;;15.80;100.00
28310;BME280;15571;50.974;13.936;2023-08-08T07:02:27;99865.41;;;15.85;100.00
28310;BME280;15571;50.974;13.936;2023-08-08T07:05:32;99876.06;;;15.81;100.00
28310;BME280;15571;50.974;13.936;2023-08-08T07:08:35;99859.28;;;15.83;100.00
28310;BME280;15571;50.974;13.936;2023-08-08T07:11:39;99859.13;;;15.90;100.00
28310;BME280;15571;50.974;13.936;2023-08-08T07:14:41;99856.16;;;15.72;100.00
28310;BME280;15571;50.974;13.936;2023-08-08T07:17:44;99860.34;;;15.78;100.00
28310;BME280;15571;50.974;13.936;2023-08-08T07:20:47;99867.47;;;15.76;100.00
28310;BME280;15571;50.974;13.936;2023-08-08T07:23:50;99849.63;;;15.84;100.00
28310;BME280;15571;50.974;13.936;2023-08-08T07:26:52;99854.50;;;15.96;100.00
28310;BME280;15571;50.974;13.936;2023-08-08T07:29:54;99844.34;;;15.84;100.00
28310;BME280;15571;50.974;13.936;2023-08-08T07:32:56;99848.34;;;15.96;100.00
28310;BME280;15571;50.974;13.936;2023-08-08T07:36:00;99845.22;;;16.10;100.00
28310;BME280;15571;50.974;13.936;2023-08-08T07:39:02;99841.34;;;16.20;100.00
28310;BME280;15571;50.974;13.936;2023-08-08T07:42:04;99834.84;;;16.30;100.00
28310;BME280;15571;50.974;13.936;2023-08-08T07:45:07;99827.81;;;16.29;100.00
28310;BME280;15571;50.974;13.936;2023-08-08T07:48:09;99840.03;;;16.57;100.00
28310;BME280;15571;50.974;13.936;2023-08-08T07:51:14;99846.72;;;16.68;100.00
28310;BME280;15571;50.974;13.936;2023-08-08T07:54:18;99849.00;;;16.77;100.00
28310;BME280;15571;50.974;13.936;2023-08-08T07:57:20;99851.09;;;16.92;100.00
28310;BME280;15571;50.974;13.936;2023-08-08T08:00:24;99850.72;;;17.03;100.00
28310;BME280;15571;50.974;13.936;2023-08-08T08:03:26;99855.94;;;17.05;100.00
28310;BME280;15571;50.974;13.936;2023-08-08T08:06:30;99856.75;;;17.29;100.00
28310;BME280;15571;50.974;13.936;2023-08-08T08:09:33;99860.84;;;17.38;100.00
28310;BME280;15571;50.974;13.936;2023-08-08T08:12:35;99853.59;;;17.43;100.00
28310;BME280;15571;50.974;13.936;2023-08-08T08:15:40;99858.91;;;17.64;100.00
28310;BME280;15571;50.974;13.936;2023-08-08T08:18:42;99854.78;;;17.79;100.00
28310;BME280;15571;50.974;13.936;2023-08-08T08:21:45;99858.72;;;17.91;100.00
28310;BME280;15571;50.974;13.936;2023-08-08T08:24:47;99857.78;;;18.14;100.00
28310;BME280;15571;50.974;13.936;2023-08-08T08:27:49;99850.97;;;18.29;100.00
28310;BME280;15571;50.974;13.936;2023-08-08T08:30:51;99850.09;;;18.28;100.00
28310;BME280;15571;50.974;13.936;2023-08-08T08:33:54;99848.72;;;18.40;100.00
28310;BME280;15571;50.974;13.936;2023-08-08T08:36:58;99848.56;;;18.43;100.00
28310;BME280;15571;50.974;13.936;2023-08-08T08:40:00;99846.28;;;18.55;100.00
28310;BME280;15571;50.974;13.936;2023-08-08T08:43:05;99845.13;;;18.41;100.00
28310;BME280;15571;50.974;13.936;2023-08-08T08:46:08;99839.44;;;18.50;100.00
28310;BME280;15571;50.974;13.936;2023-08-08T08:49:12;99828.81;;;18.50;100.00
28310;BME280;15571;50.974;13.936;2023-08-08T08:52:16;99830.91;;;18.63;100.00
28310;BME280;15571;50.974;13.936;2023-08-08T08:55:18;99832.56;;;18.65;100.00
28310;BME280;15571;50.974;13.936;2023-08-08T08:58:20;99834.84;;;18.73;100.00
28310;BME280;15571;50.974;13.936;2023-08-08T09:01:23;99828.41;;;18.60;100.00
28310;BME280;15571;50.974;13.936;2023-08-08T09:04:31;99830.47;;;18.72;100.00
28310;BME280;15571;50.974;13.936;2023-08-08T09:07:36;99834.84;;;18.73;100.00
28310;BME280;15571;50.974;13.936;2023-08-08T09:10:38;99834.13;;;18.70;100.00
28310;BME280;15571;50.974;13.936;2023-08-08T09:13:41;99838.31;;;18.75;100.00
28310;BME280;15571;50.974;13.936;2023-08-08T09:16:45;99837.66;;;18.70;100.00
28310;BME280;15571;50.974;13.936;2023-08-08T09:19:47;99843.03;;;18.69;100.00
28310;BME280;15571;50.974;13.936;2023-08-08T09:22:52;99842.72;;;18.56;100.00
28310;BME280;15571;50.974;13.936;2023-08-08T09:25:54;99843.47;;;18.39;100.00
28310;BME280;15571;50.974;13.936;2023-08-08T09:28:56;99837.59;;;18.11;100.00
28310;BME280;15571;50.974;13.936;2023-08-08T09:31:58;99838.16;;;18.18;100.00
28310;BME280;15571;50.974;13.936;2023-08-08T09:35:00;99840.75;;;17.99;100.00
28310;BME280;15571;50.974;13.936;2023-08-08T09:38:07;99841.75;;;17.74;100.00
28310;BME280;15571;50.974;13.936;2023-08-08T09:41:09;99847.72;;;17.79;100.00
28310;BME280;15571;50.974;13.936;2023-08-08T09:44:11;99843.88;;;17.86;100.00
28310;BME280;15571;50.974;13.936;2023-08-08T09:47:17;99849.13;;;17.66;100.00
28310;BME280;15571;50.974;13.936;2023-08-08T09:50:19;99849.03;;;17.69;100.00
28310;BME280;15571;50.974;13.936;2023-08-08T09:53:23;99848.72;;;17.54;100.00
28310;BME280;15571;50.974;13.936;2023-08-08T09:56:25;99847.25;;;17.47;100.00
28310;BME280;15571;50.974;13.936;2023-08-08T09:59:27;99854.16;;;17.51;100.00
28310;BME280;15571;50.974;13.936;2023-08-08T10:02:30;99846.63;;;17.63;100.00
28310;BME280;15571;50.974;13.936;2023-08-08T10:05:35;99850.97;;;17.64;100.00
28310;BME280;15571;50.974;13.936;2023-08-08T10:08:39;99845.50;;;17.68;100.00
28310;BME280;15571;50.974;13.936;2023-08-08T10:11:41;99848.34;;;17.86;100.00
28310;BME280;15571;50.974;13.936;2023-08-08T10:14:51;99839.03;;;17.98;100.00
28310;BME280;15571;50.974;13.936;2023-08-08T10:17:53;99848.31;;;18.08;100.00
28310;BME280;15571;50.974;13.936;2023-08-08T10:20:57;99841.22;;;18.09;100.00
28310;BME280;15571;50.974;13.936;2023-08-08T10:24:03;99839.03;;;18.18;100.00
28310;BME280;15571;50.974;13.936;2023-08-08T10:27:05;99835.66;;;18.15;100.00
28310;BME280;15571;50.974;13.936;2023-08-08T10:30:08;99825.78;;;18.39;100.00
28310;BME280;15571;50.974;13.936;2023-08-08T10:33:17;99824.84;;;18.61;100.00
28310;BME280;15571;50.974;13.936;2023-08-08T10:36:19;99831.41;;;18.71;100.00
28310;BME280;15571;50.974;13.936;2023-08-08T10:39:25;99826.53;;;18.62;100.00
28310;BME280;15571;50.974;13.936;2023-08-08T10:42:27;99825.13;;;18.74;100.00
28310;BME280;15571;50.974;13.936;2023-08-08T10:45:31;99819.19;;;18.88;100.00
28310;BME280;15571;50.974;13.936;2023-08-08T10:48:33;99813.66;;;19.11;100.00
28310;BME280;15571;50.974;13.936;2023-08-08T10:51:35;99805.09;;;19.06;100.00
28310;BME280;15571;50.974;13.936;2023-08-08T10:54:39;99798.91;;;19.25;100.00
28310;BME280;15571;50.974;13.936;2023-08-08T10:57:53;99801.91;;;19.54;100.00
28310;BME280;15571;50.974;13.936;2023-08-08T11:00:56;99796.59;;;19.54;100.00
28310;BME280;15571;50.974;13.936;2023-08-08T11:04:02;99792.47;;;19.48;100.00
28310;BME280;15571;50.974;13.936;2023-08-08T11:07:06;99782.09;;;19.61;100.00
28310;BME280;15571;50.974;13.936;2023-08-08T11:10:10;99787.06;;;19.50;100.00
28310;BME280;15571;50.974;13.936;2023-08-08T11:13:12;99785.19;;;19.52;100.00
28310;BME280;15571;50.974;13.936;2023-08-08T11:16:14;99783.09;;;19.41;100.00
28310;BME280;15571;50.974;13.936;2023-08-08T11:19:16;99780.91;;;19.49;100.00
28310;BME280;15571;50.974;13.936;2023-08-08T11:22:20;99775.31;;;19.19;100.00
28310;BME280;15571;50.974;13.936;2023-08-08T11:25:26;99774.66;;;19.13;100.00
28310;BME280;15571;50.974;13.936;2023-08-08T11:28:28;99768.44;;;19.15;100.00
28310;BME280;15571;50.974;13.936;2023-08-08T11:31:33;99761.41;;;19.13;100.00
28310;BME280;15571;50.974;13.936;2023-08-08T11:34:35;99766.22;;;19.24;100.00
28310;BME280;15571;50.974;13.936;2023-08-08T11:37:37;99760.13;;;19.22;100.00
28310;BME280;15571;50.974;13.936;2023-08-08T11:40:41;99760.13;;;19.40;100.00
28310;BME280;15571;50.974;13.936;2023-08-08T11:43:44;99756.00;;;19.52;100.00
28310;BME280;15571;50.974;13.936;2023-08-08T11:46:46;99755.06;;;19.53;100.00
28310;BME280;15571;50.974;13.936;2023-08-08T11:49:49;99749.28;;;19.62;100.00
28310;BME280;15571;50.974;13.936;2023-08-08T11:52:54;99744.53;;;19.86;100.00
28310;BME280;15571;50.974;13.936;2023-08-08T11:55:58;99735.31;;;20.11;100.00
28310;BME280;15571;50.974;13.936;2023-08-08T11:59:01;99733.28;;;20.32;100.00
28310;BME280;15571;50.974;13.936;2023-08-08T12:02:03;99730.75;;;20.47;100.00
28310;BME280;15571;50.974;13.936;2023-08-08T12:05:05;99723.53;;;20.49;100.00
28310;BME280;15571;50.974;13.936;2023-08-08T12:08:08;99715.13;;;20.57;100.00
28310;BME280;15571;50.974;13.936;2023-08-08T12:11:13;99717.34;;;20.32;100.00
28310;BME280;15571;50.974;13.936;2023-08-08T12:14:15;99702.09;;;20.36;100.00
28310;BME280;15571;50.974;13.936;2023-08-08T12:17:17;99695.91;;;20.67;100.00
28310;BME280;15571;50.974;13.936;2023-08-08T12:20:19;99682.75;;;20.82;96.57
28310;BME280;15571;50.974;13.936;2023-08-08T12:23:21;99689.91;;;21.12;100.00
28310;BME280;15571;50.974;13.936;2023-08-08T12:26:24;99690.06;;;21.25;91.33
28310;BME280;15571;50.974;13.936;2023-08-08T12:29:29;99686.22;;;21.45;86.96
28310;BME280;15571;50.974;13.936;2023-08-08T12:32:31;99671.28;;;21.42;90.93
28310;BME280;15571;50.974;13.936;2023-08-08T12:35:34;99676.19;;;21.34;90.81
28310;BME280;15571;50.974;13.936;2023-08-08T12:38:37;99683.34;;;21.34;97.09
28310;BME280;15571;50.974;13.936;2023-08-08T12:41:42;99675.34;;;21.34;98.24
28310;BME280;15571;50.974;13.936;2023-08-08T12:44:44;99671.59;;;21.22;100.00
28310;BME280;15571;50.974;13.936;2023-08-08T12:47:47;99677.56;;;21.11;100.00
28310;BME280;15571;50.974;13.936;2023-08-08T12:50:49;99670.69;;;21.07;97.64
28310;BME280;15571;50.974;13.936;2023-08-08T12:53:51;99672.00;;;20.99;98.67
28310;BME280;15571;50.974;13.936;2023-08-08T12:56:55;99671.75;;;20.88;100.00
28310;BME280;15571;50.974;13.936;2023-08-08T12:59:57;99678.09;;;20.69;100.00
28310;BME280;15571;50.974;13.936;2023-08-08T13:02:59;99663.16;;;20.51;100.00
28310;BME280;15571;50.974;13.936;2023-08-08T13:06:01;99660.66;;;20.48;100.00
28310;BME280;15571;50.974;13.936;2023-08-08T13:09:03;99655.97;;;20.53;100.00
28310;BME280;15571;50.974;13.936;2023-08-08T13:12:06;99656.13;;;20.66;100.00
28310;BME280;15571;50.974;13.936;2023-08-08T13:15:09;99658.34;;;21.06;100.00
28310;BME280;15571;50.974;13.936;2023-08-08T13:18:11;99665.72;;;21.01;100.00
28310;BME280;15571;50.974;13.936;2023-08-08T13:21:13;99662.94;;;21.18;100.00
28310;BME280;15571;50.974;13.936;2023-08-08T13:24:15;99664.88;;;21.30;100.00
28310;BME280;15571;50.974;13.936;2023-08-08T13:27:25;99664.59;;;21.35;92.98
28310;BME280;15571;50.974;13.936;2023-08-08T13:30:27;99668.75;;;21.25;94.31
28310;BME280;15571;50.974;13.936;2023-08-08T13:33:30;99658.56;;;21.48;92.26
28310;BME280;15571;50.974;13.936;2023-08-08T13:36:32;99651.78;;;21.42;93.57
28310;BME280;15571;50.974;13.936;2023-08-08T13:39:34;99642.84;;;21.43;90.42
28310;BME280;15571;50.974;13.936;2023-08-08T13:42:38;99643.59;;;21.30;88.94
28310;BME280;15571;50.974;13.936;2023-08-08T13:45:41;99643.72;;;21.13;91.40
28310;BME280;15571;50.974;13.936;2023-08-08T13:48:43;99644.06;;;21.07;96.22
28310;BME280;15571;50.974;13.936;2023-08-08T13:51:48;99637.25;;;20.87;100.00
28310;BME280;15571;50.974;13.936;2023-08-08T13:54:50;99641.47;;;20.91;100.00
28310;BME280;15571;50.974;13.936;2023-08-08T13:57:54;99639.91;;;21.03;100.00
28310;BME280;15571;50.974;13.936;2023-08-08T14:00:59;99645.63;;;21.11;100.00
28310;BME280;15571;50.974;13.936;2023-08-08T14:04:03;99640.47;;;21.08;100.00
28310;BME280;15571;50.974;13.936;2023-08-08T14:07:05;99637.78;;;20.93;100.00
28310;BME280;15571;50.974;13.936;2023-08-08T14:10:08;99645.69;;;20.79;100.00
28310;BME280;15571;50.974;13.936;2023-08-08T14:13:12;99671.41;;;20.62;100.00
28310;BME280;15571;50.974;13.936;2023-08-08T14:16:14;99697.47;;;20.40;100.00
28310;BME280;15571;50.974;13.936;2023-08-08T14:19:16;99681.91;;;19.82;100.00
28310;BME280;15571;50.974;13.936;2023-08-08T14:22:20;99676.19;;;19.90;100.00
28310;BME280;15571;50.974;13.936;2023-08-08T14:25:22;99667.97;;;19.95;100.00
28310;BME280;15571;50.974;13.936;2023-08-08T14:28:26;99663.19;;;20.01;100.00
28310;BME280;15571;50.974;13.936;2023-08-08T14:31:30;99661.44;;;20.18;100.00
28310;BME280;15571;50.974;13.936;2023-08-08T14:34:34;99662.81;;;20.25;100.00
28310;BME280;15571;50.974;13.936;2023-08-08T14:37:38;99659.63;;;20.18;100.00
28310;BME280;15571;50.974;13.936;2023-08-08T14:40:40;99660.22;;;20.08;100.00
28310;BME280;15571;50.974;13.936;2023-08-08T14:43:44;99663.59;;;19.94;100.00
28310;BME280;15571;50.974;13.936;2023-08-08T14:47:18;99658.63;;;19.87;100.00
28310;BME280;15571;50.974;13.936;2023-08-08T14:50:20;99672.34;;;19.96;100.00
28310;BME280;15571;50.974;13.936;2023-08-08T14:53:22;99665.78;;;20.03;100.00
28310;BME280;15571;50.974;13.936;2023-08-08T14:56:25;99664.31;;;20.13;100.00
28310;BME280;15571;50.974;13.936;2023-08-08T14:59:29;99656.13;;;20.18;100.00
28310;BME280;15571;50.974;13.936;2023-08-08T15:02:31;99652.00;;;20.28;100.00
28310;BME280;15571;50.974;13.936;2023-08-08T15:05:34;99658.19;;;20.29;100.00
28310;BME280;15571;50.974;13.936;2023-08-08T15:08:36;99669.50;;;20.32;100.00
28310;BME280;15571;50.974;13.936;2023-08-08T15:11:40;99679.09;;;20.35;100.00
28310;BME280;15571;50.974;13.936;2023-08-08T15:14:44;99705.16;;;20.28;100.00
28310;BME280;15571;50.974;13.936;2023-08-08T15:17:49;99720.22;;;20.12;100.00
28310;BME280;15571;50.974;13.936;2023-08-08T15:20:52;99737.75;;;19.98;100.00
28310;BME280;15571;50.974;13.936;2023-08-08T15:23:56;99718.63;;;19.92;100.00
28310;BME280;15571;50.974;13.936;2023-08-08T15:27:00;99719.38;;;20.11;100.00
28310;BME280;15571;50.974;13.936;2023-08-08T15:30:04;99725.56;;;20.28;100.00
28310;BME280;15571;50.974;13.936;2023-08-08T15:33:06;99715.81;;;20.44;100.00
28310;BME280;15571;50.974;13.936;2023-08-08T15:36:08;99707.94;;;20.43;100.00
28310;BME280;15571;50.974;13.936;2023-08-08T15:39:11;99697.47;;;20.40;100.00
28310;BME280;15571;50.974;13.936;2023-08-08T15:42:13;99696.34;;;20.44;100.00
28310;BME280;15571;50.974;13.936;2023-08-08T15:45:18;99686.41;;;20.47;100.00
28310;BME280;15571;50.974;13.936;2023-08-08T15:48:20;99702.47;;;20.62;100.00
28310;BME280;15571;50.974;13.936;2023-08-08T15:51:23;99711.97;;;20.66;100.00